PROFILE

 METAR AND TAF INFORMATION
ADDS - METARS form results

(0551 UTC 17 October 2021)
http://aviationweather.gov/metar/data/
 
FSIA 170500Z 14014KT 9999 SCT018 28/24 Q1012 NOSIG
TAF FSIA 170500Z 1706/1806 13014KT 9999 SCT021 

 AIRPORT MAP

 RUNWAY INFORMATION
Runway 13 Runway length 9800 ft Runway width 151 ft
Runway elevation 10 ft Runway displaced threshold 1000 ft Runway heading 125
Runway 31 Runway length 9800 ft Runway width 151 ft
Runway elevation 10 ft Runway displaced threshold 1000 ft Runway heading 305

 AIRPORT FREQUENCIES
Type APP Name APP Frequency 119.7 MHZ
Type TWR Name TWR Frequency 118.3 MHZ

 AIRPORT NEAR NAVIGATION AIDS
Type VOR-DME Name Seychelles Frequency 113100 KHZ
Type NDB Name Seychelles Frequency 373 KHZ